CheckWX is a tool to help pilots better visualize weather data.  It is not intended as a substitute for an official pre-flight weather briefing.

18:21:43 UTC

KMCC TAF
Mc Clellan Airfield Airport
Sacramento, California, USA
KMCC 082320Z 0900/0924 21007KT P6SM SKC FM090600 16007KT P6SM SKC FM091700 23005KT P6SM SKC

Jul-9@
00:00 UTC

Jul-9 @ 00:00 UTC

Jul-9@
06:00 UTC

Jul-9 @ 06:00 UTC

TAF KMCC 082320Z 0900/0924 21007KT P6SM SKC

Expired

Wind
  • 210° at 7 KTS
Cloud Levels
  • Clear skies

Jul-9@
06:00 UTC

Jul-9 @ 06:00 UTC

Jul-9@
17:00 UTC

Jul-9 @ 17:00 UTC

FM090600 16007KT P6SM SKC

Expired

Wind
  • 160° at 7 KTS
Cloud Levels
  • Clear skies

Jul-9@
17:00 UTC

Jul-9 @ 17:00 UTC

Jul-10@
00:00 UTC

Jul-10 @ 00:00 UTC

FM091700 23005KT P6SM SKC

From

From Standard forecast or significant change

Wind
  • 230° at 5 KTS
Cloud Levels
  • Clear skies